createdAt,value
2019-03-29T00:00:19.958Z,20.5
2019-03-29T00:01:20.063Z,20.299999
2019-03-29T00:02:20.200Z,20.200001
2019-03-29T00:03:20.307Z,20.299999
2019-03-29T00:04:20.410Z,21
2019-03-29T00:05:20.508Z,21
2019-03-29T00:06:20.610Z,21
2019-03-29T00:07:20.759Z,21
2019-03-29T00:08:20.857Z,20.9
2019-03-29T00:09:20.982Z,21.700001
2019-03-29T00:10:21.145Z,21.9
2019-03-29T00:11:21.200Z,21.799999
2019-03-29T00:12:21.375Z,22.4
2019-03-29T00:13:21.291Z,22.700001
2019-03-29T00:14:23.425Z,22.4
2019-03-29T00:15:21.486Z,21.700001
2019-03-29T00:16:21.596Z,23.5
2019-03-29T00:17:21.776Z,23.299999
2019-03-29T00:18:21.721Z,23.6
2019-03-29T00:19:21.828Z,24.5
2019-03-29T00:20:21.933Z,23.9
2019-03-29T00:21:22.026Z,23.6
2019-03-29T00:22:22.203Z,23.1
2019-03-29T00:23:22.955Z,22.299999
2019-03-29T00:24:22.432Z,22.9
2019-03-29T00:25:22.540Z,22.4
2019-03-29T00:26:22.679Z,23.299999
2019-03-29T00:27:22.838Z,22.299999
2019-03-29T00:28:22.942Z,23.700001
2019-03-29T00:29:23.045Z,24.200001
2019-03-29T00:30:23.198Z,23.9
2019-03-29T00:31:23.131Z,22.9
2019-03-29T00:32:23.313Z,23.5
2019-03-29T00:33:23.951Z,22
2019-03-29T00:34:23.412Z,23.700001
2019-03-29T00:35:23.568Z,23
2019-03-29T00:36:23.676Z,23.1
2019-03-29T00:37:23.846Z,23.200001
2019-03-29T00:38:23.809Z,24.200001
2019-03-29T00:39:23.878Z,23.5
2019-03-29T00:40:23.978Z,25.1
2019-03-29T00:41:24.369Z,23.4
2019-03-29T00:42:24.222Z,22.6
2019-03-29T00:43:24.331Z,22.6
2019-03-29T00:44:24.465Z,22.9
2019-03-29T00:45:24.562Z,23.6
2019-03-29T00:46:24.694Z,25
2019-03-29T00:47:24.840Z,26
2019-03-29T00:48:24.953Z,25.1
2019-03-29T00:49:25.063Z,23.5
2019-03-29T00:50:25.170Z,23.1
2019-03-29T00:51:25.279Z,22.6
2019-03-29T00:52:25.425Z,24
2019-03-29T00:53:25.525Z,24.5
2019-03-29T00:54:25.633Z,24.4
2019-03-29T00:55:25.728Z,23.700001
2019-03-29T00:56:25.827Z,24.799999
2019-03-29T00:57:25.997Z,24.9
2019-03-29T00:58:25.921Z,23.799999
2019-03-29T00:59:26.054Z,24.799999
2019-03-29T01:00:26.171Z,24.299999
2019-03-29T01:01:27.279Z,24
2019-03-29T01:02:26.411Z,24.700001
2019-03-29T01:03:26.511Z,23.9
2019-03-29T01:04:26.637Z,24.4
2019-03-29T01:05:26.770Z,26.200001
2019-03-29T01:06:26.877Z,25.299999
2019-03-29T01:07:27.029Z,25.5
2019-03-29T01:08:27.140Z,25.6
2019-03-29T01:09:27.247Z,24
2019-03-29T01:10:27.366Z,25.4
2019-03-29T01:11:27.512Z,25
2019-03-29T01:12:27.658Z,25.299999
2019-03-29T01:13:27.760Z,25.200001
2019-03-29T01:14:27.874Z,24.200001
2019-03-29T01:15:27.994Z,26.299999
2019-03-29T01:16:28.093Z,25.5
2019-03-29T01:17:28.245Z,26.299999
2019-03-29T01:18:28.368Z,25.9
2019-03-29T01:19:29.183Z,24.200001
2019-03-29T01:20:28.591Z,26.700001
2019-03-29T01:21:28.714Z,25.200001
2019-03-29T01:22:28.819Z,27.299999
2019-03-29T01:23:29.975Z,26.299999
2019-03-29T01:24:29.089Z,27.1
2019-03-29T01:25:29.204Z,27.1
2019-03-29T01:26:29.301Z,26.4
2019-03-29T01:27:29.419Z,26.1
2019-03-29T01:28:29.567Z,28.200001
2019-03-29T01:29:30.337Z,28.799999
2019-03-29T01:30:29.754Z,27.9
2019-03-29T01:31:29.859Z,28.1
2019-03-29T01:32:29.982Z,29.4
2019-03-29T01:33:30.138Z,28.4
2019-03-29T01:34:31.242Z,28.200001
2019-03-29T01:35:30.346Z,28.6
2019-03-29T01:36:30.475Z,27.700001
2019-03-29T01:37:30.585Z,28.9
2019-03-29T01:38:30.692Z,30.299999
2019-03-29T01:39:30.853Z,29.1
2019-03-29T01:40:30.987Z,29.5
2019-03-29T01:41:31.114Z,28.5
2019-03-29T01:42:31.235Z,30.299999
2019-03-29T01:43:31.408Z,30.1
2019-03-29T01:44:31.500Z,29.700001
2019-03-29T01:45:31.602Z,30.299999
2019-03-29T01:46:31.748Z,31
2019-03-29T01:47:31.848Z,29.9
2019-03-29T01:48:32.001Z,29.9
2019-03-29T01:49:32.121Z,31.200001
2019-03-29T01:50:32.244Z,30.5
2019-03-29T01:51:33.332Z,30.5
2019-03-29T01:52:32.417Z,29.700001
2019-03-29T01:53:32.550Z,30.200001
2019-03-29T01:54:32.657Z,31.1
2019-03-29T01:55:32.767Z,32.200001
2019-03-29T01:56:32.867Z,31.1
2019-03-29T01:57:33.145Z,31.200001
2019-03-29T01:58:33.114Z,31.9
2019-03-29T01:59:33.219Z,33.400002
2019-03-29T02:00:33.329Z,33.5
2019-03-29T02:01:34.440Z,32.599998
2019-03-29T02:02:33.580Z,33.200001
2019-03-29T02:03:33.709Z,33.599998
2019-03-29T02:04:34.271Z,34.5
2019-03-29T02:05:33.900Z,32.599998
2019-03-29T02:06:34.011Z,33.599998
2019-03-29T02:07:34.142Z,34.599998
2019-03-29T02:08:35.810Z,33.400002
2019-03-29T02:09:35.426Z,33.200001
2019-03-29T02:10:34.571Z,34
2019-03-29T02:11:34.739Z,34.400002
2019-03-29T02:12:34.849Z,35.299999
2019-03-29T02:13:35.067Z,35.5
2019-03-29T02:14:35.000Z,34.099998
2019-03-29T02:15:35.132Z,34.400002
2019-03-29T02:16:35.271Z,34.200001
2019-03-29T02:17:35.402Z,33.700001
2019-03-29T02:18:35.534Z,33.200001
2019-03-29T02:19:35.665Z,35
2019-03-29T02:20:35.780Z,35
2019-03-29T02:21:35.881Z,34.400002
2019-03-29T02:22:36.275Z,36.200001
2019-03-29T02:23:36.208Z,35.099998
2019-03-29T02:24:36.146Z,35.299999
2019-03-29T02:25:36.260Z,35.099998
2019-03-29T02:26:36.386Z,36
2019-03-29T02:27:36.478Z,36
2019-03-29T02:28:36.658Z,36.200001
2019-03-29T02:29:37.613Z,37.900002
2019-03-29T02:30:36.700Z,41.900002
2019-03-29T02:31:36.798Z,37.5
2019-03-29T02:32:37.943Z,39.400002
2019-03-29T02:33:36.938Z,37.900002
2019-03-29T02:34:36.893Z,36.200001
2019-03-29T02:35:38.376Z,35.400002
2019-03-29T02:36:37.086Z,37.599998
2019-03-29T02:37:37.186Z,37.200001
2019-03-29T02:38:54.015Z,37
2019-03-29T02:39:38.297Z,37.299999
2019-03-29T02:40:37.397Z,36.099998
2019-03-29T02:41:37.504Z,37.299999
2019-03-29T02:42:37.620Z,39
2019-03-29T02:43:38.628Z,38.200001
2019-03-29T02:44:37.846Z,37.700001
2019-03-29T02:45:37.959Z,38.5
2019-03-29T02:46:38.056Z,36.200001
2019-03-29T02:47:38.170Z,38
2019-03-29T02:48:38.632Z,37.799999
2019-03-29T02:49:38.410Z,38.400002
2019-03-29T02:50:38.511Z,37.900002
2019-03-29T02:51:38.634Z,38.299999
2019-03-29T02:52:38.729Z,40.099998
2019-03-29T02:53:38.995Z,37.799999
2019-03-29T02:54:38.945Z,38.599998
2019-03-29T02:55:39.041Z,38.299999
2019-03-29T02:56:39.141Z,37.900002
2019-03-29T02:57:39.240Z,37.400002
2019-03-29T02:58:39.511Z,37.799999
2019-03-29T02:59:39.531Z,37.400002
2019-03-29T03:00:39.470Z,38.5
2019-03-29T03:01:39.575Z,38.099998
2019-03-29T03:02:39.683Z,38.200001
2019-03-29T03:03:39.849Z,38
2019-03-29T03:04:39.789Z,38.5
2019-03-29T03:05:39.894Z,38
2019-03-29T03:06:40.006Z,38.099998
2019-03-29T03:07:40.086Z,37.700001
2019-03-29T03:08:40.209Z,38.799999
2019-03-29T03:09:40.300Z,39.5
2019-03-29T03:10:40.399Z,39.599998
2019-03-29T03:11:40.503Z,39.299999
2019-03-29T03:12:40.607Z,38.599998
2019-03-29T03:13:40.744Z,38.700001
2019-03-29T03:14:40.725Z,39.5
2019-03-29T03:15:40.824Z,38.200001
2019-03-29T03:16:40.925Z,38.799999
2019-03-29T03:17:41.035Z,39.400002
2019-03-29T03:18:41.128Z,39.200001
2019-03-29T03:19:41.273Z,39.299999
2019-03-29T03:20:41.379Z,39.099998
2019-03-29T03:21:41.478Z,38.700001
2019-03-29T03:22:41.577Z,39.099998
2019-03-29T03:23:41.676Z,39.700001
2019-03-29T03:24:41.824Z,38.799999
2019-03-29T03:25:41.922Z,39.099998
2019-03-29T03:26:42.104Z,39.400002
2019-03-29T03:27:42.122Z,38.900002
2019-03-29T03:28:42.225Z,39.799999
2019-03-29T03:29:42.345Z,40.700001
2019-03-29T03:30:43.460Z,41.099998
2019-03-29T03:31:42.553Z,39.900002
2019-03-29T03:32:42.701Z,39.900002
2019-03-29T03:33:42.743Z,40.799999
2019-03-29T03:34:42.903Z,40.299999
2019-03-29T03:35:42.995Z,40.5
2019-03-29T03:36:43.098Z,39.700001
2019-03-29T03:37:43.226Z,41
2019-03-29T03:38:43.322Z,40.599998
2019-03-29T03:39:43.454Z,42.599998
2019-03-29T03:40:43.555Z,41.599998
2019-03-29T03:41:43.665Z,41.099998
2019-03-29T03:42:43.778Z,42.599998
2019-03-29T03:43:43.879Z,41.700001
2019-03-29T03:44:44.008Z,41
2019-03-29T03:45:44.115Z,41.599998
2019-03-29T03:46:44.211Z,40
2019-03-29T03:47:44.315Z,40.799999
2019-03-29T03:48:44.426Z,40.700001
2019-03-29T03:49:44.548Z,42.900002
2019-03-29T03:50:44.658Z,41
2019-03-29T03:51:44.757Z,42
2019-03-29T03:52:44.859Z,42.299999
2019-03-29T03:53:44.971Z,43.200001
2019-03-29T03:54:45.122Z,42.299999
2019-03-29T03:55:45.235Z,39.599998
2019-03-29T03:56:45.333Z,41.200001
2019-03-29T03:57:45.440Z,44.200001
2019-03-29T03:58:45.547Z,42.700001
2019-03-29T03:59:45.691Z,42.5
2019-03-29T04:00:45.806Z,44.299999
2019-03-29T04:01:45.921Z,42.099998
2019-03-29T04:02:46.024Z,43.400002
2019-03-29T04:03:46.123Z,44.5
2019-03-29T04:04:46.240Z,42
2019-03-29T04:05:46.346Z,42
2019-03-29T04:06:46.445Z,40.599998
2019-03-29T04:07:46.554Z,40.200001
2019-03-29T04:08:46.660Z,42.200001
2019-03-29T04:09:49.680Z,42
2019-03-29T04:10:47.804Z,41.700001
2019-03-29T04:11:46.924Z,42.299999
2019-03-29T04:12:47.031Z,42.799999
2019-03-29T04:13:47.136Z,41.700001
2019-03-29T04:14:47.414Z,43.400002
2019-03-29T04:15:47.225Z,41.900002
2019-03-29T04:16:47.328Z,44
2019-03-29T04:17:47.419Z,42
2019-03-29T04:18:47.526Z,42.099998
2019-03-29T04:19:47.660Z,41.799999
2019-03-29T04:20:47.775Z,41.099998
2019-03-29T04:21:47.858Z,41.5
2019-03-29T04:22:47.990Z,41.299999
2019-03-29T04:23:48.093Z,41.400002
2019-03-29T04:24:48.251Z,41.799999
2019-03-29T04:25:48.202Z,43
2019-03-29T04:26:48.296Z,39.5
2019-03-29T04:27:48.415Z,39.5
2019-03-29T04:29:03.246Z,36.700001
2019-03-29T04:29:49.660Z,40
2019-03-29T04:30:48.604Z,37.700001
2019-03-29T04:31:48.746Z,37.299999
2019-03-29T04:32:48.851Z,38.400002
2019-03-29T04:33:48.981Z,38.5
2019-03-29T04:34:49.234Z,37.200001
2019-03-29T04:35:49.191Z,39.200001
2019-03-29T04:36:49.292Z,37.400002
2019-03-29T04:37:49.417Z,38.700001
2019-03-29T04:38:49.515Z,39.5
2019-03-29T04:40:05.720Z,39.5
2019-03-29T04:40:50.819Z,39.799999
2019-03-29T04:41:49.929Z,38.299999
2019-03-29T04:42:50.120Z,40.200001
2019-03-29T04:43:50.154Z,40.599998
2019-03-29T04:44:50.336Z,39.299999
2019-03-29T04:45:50.452Z,39.200001
2019-03-29T04:46:50.560Z,41.099998
2019-03-29T04:47:50.664Z,39
2019-03-29T04:48:50.780Z,40.299999
2019-03-29T04:49:50.957Z,37.5
2019-03-29T04:50:50.904Z,38.799999
2019-03-29T04:51:50.993Z,38.599998
2019-03-29T04:52:51.139Z,39.5
2019-03-29T04:53:51.249Z,38.599998
2019-03-29T04:54:51.436Z,39.099998
2019-03-29T04:55:51.375Z,38.299999
2019-03-29T04:56:51.507Z,40.200001
2019-03-29T04:57:52.609Z,38.299999
2019-03-29T04:58:51.766Z,37.900002
2019-03-29T04:59:51.909Z,38.599998
2019-03-29T05:00:52.026Z,38
2019-03-29T05:01:52.134Z,36.599998
2019-03-29T05:02:52.248Z,37.200001
2019-03-29T05:03:52.363Z,36.099998
2019-03-29T05:04:52.505Z,36.299999
2019-03-29T05:05:52.617Z,36.400002
2019-03-29T05:06:52.807Z,38.299999
2019-03-29T05:07:52.752Z,36.400002
2019-03-29T05:08:52.874Z,37.200001
2019-03-29T05:09:53.069Z,37.200001
2019-03-29T05:10:53.012Z,36.799999
2019-03-29T05:11:53.190Z,37.400002
2019-03-29T05:12:53.111Z,35.900002
2019-03-29T05:13:53.241Z,36.400002
2019-03-29T05:14:53.412Z,36.5
2019-03-29T05:15:53.428Z,37.400002
2019-03-29T05:16:53.412Z,35.200001
2019-03-29T05:17:53.405Z,36
2019-03-29T05:18:53.575Z,35.200001
2019-03-29T05:19:53.614Z,36.900002
2019-03-29T05:20:53.607Z,36.299999
2019-03-29T05:21:53.591Z,34.400002
2019-03-29T05:22:53.771Z,37.299999
2019-03-29T05:23:53.801Z,35.799999
2019-03-29T05:24:53.913Z,36.099998
2019-03-29T05:25:53.947Z,36.799999
2019-03-29T05:26:54.004Z,38.799999
2019-03-29T05:27:54.056Z,36.400002
2019-03-29T05:28:54.109Z,37.200001
2019-03-29T05:29:54.224Z,34.799999
2019-03-29T05:30:54.287Z,35
2019-03-29T05:31:54.371Z,35.599998
2019-03-29T05:32:54.402Z,35.200001
2019-03-29T05:33:54.461Z,35.200001
2019-03-29T05:34:54.536Z,39.900002
2019-03-29T05:35:54.635Z,36
2019-03-29T05:36:54.687Z,39.400002
2019-03-29T05:37:55.869Z,39.700001
2019-03-29T05:38:54.789Z,39.900002
2019-03-29T05:39:54.826Z,41.599998
2019-03-29T05:40:54.934Z,38.900002
2019-03-29T05:41:54.987Z,40.099998
2019-03-29T05:42:55.050Z,38.299999
2019-03-29T05:43:55.106Z,40.200001
2019-03-29T05:44:55.146Z,38.400002
2019-03-29T05:45:55.241Z,38.900002
2019-03-29T05:46:55.280Z,39.099998
2019-03-29T05:47:55.365Z,39.700001
2019-03-29T05:48:55.438Z,41
2019-03-29T05:49:55.476Z,40.099998
2019-03-29T05:50:55.543Z,41.099998
2019-03-29T05:51:55.611Z,39.900002
2019-03-29T05:52:55.655Z,38.799999
2019-03-29T05:53:55.699Z,39.099998
2019-03-29T05:54:55.747Z,39.299999
2019-03-29T05:55:55.841Z,37.799999
2019-03-29T05:56:55.863Z,36.900002
2019-03-29T05:57:55.938Z,39.700001
2019-03-29T05:58:56.029Z,38.099998
2019-03-29T05:59:56.087Z,36.700001
2019-03-29T06:00:56.171Z,39.5
2019-03-29T06:01:56.224Z,36.799999
2019-03-29T06:02:56.278Z,36.900002
2019-03-29T06:03:56.344Z,36
2019-03-29T06:04:56.408Z,37
2019-03-29T06:05:56.493Z,37.400002
2019-03-29T06:06:57.548Z,36.700001
2019-03-29T06:07:56.630Z,36.599998
2019-03-29T06:08:56.677Z,36.700001
2019-03-29T06:09:56.722Z,37.099998
2019-03-29T06:10:56.774Z,37.299999
2019-03-29T06:11:56.831Z,38.400002
2019-03-29T06:12:56.873Z,37.200001
2019-03-29T06:13:56.947Z,36.299999
2019-03-29T06:14:57.019Z,36.200001
2019-03-29T06:15:57.073Z,35.700001
2019-03-29T06:16:57.122Z,37.799999
2019-03-29T06:17:57.165Z,36.099998
2019-03-29T06:18:57.220Z,37.700001
2019-03-29T06:19:57.278Z,35.200001
2019-03-29T06:20:57.358Z,34.5
2019-03-29T06:21:57.397Z,35.900002
2019-03-29T06:22:57.446Z,35.900002
2019-03-29T06:23:57.492Z,33.700001
2019-03-29T06:24:57.534Z,32.700001
2019-03-29T06:25:57.634Z,32.900002
2019-03-29T06:26:57.673Z,32.400002
2019-03-29T06:27:57.715Z,33.400002
2019-03-29T06:28:57.758Z,32.5
2019-03-29T06:29:57.799Z,33.200001
2019-03-29T06:30:57.917Z,32.299999
2019-03-29T06:31:57.953Z,33.799999
2019-03-29T06:32:58.014Z,32.900002
2019-03-29T06:33:58.060Z,30.799999
2019-03-29T06:34:58.130Z,30.6
2019-03-29T06:35:58.229Z,29.6
2019-03-29T06:36:58.264Z,32.700001
2019-03-29T06:37:58.348Z,30.299999
2019-03-29T06:38:58.390Z,29.200001
2019-03-29T06:39:58.444Z,31.1
2019-03-29T06:41:03.058Z,39.900002
2019-03-29T06:41:59.541Z,31.299999
2019-03-29T06:42:58.589Z,30.700001
2019-03-29T06:43:58.642Z,29.200001
2019-03-29T06:44:58.689Z,27
2019-03-29T06:45:58.930Z,26.5
2019-03-29T06:46:58.804Z,26.700001
2019-03-29T06:47:58.843Z,29.9
2019-03-29T06:48:58.891Z,26.9
2019-03-29T06:49:58.949Z,27.200001
2019-03-29T06:50:59.079Z,27.299999
2019-03-29T06:51:59.142Z,26
2019-03-29T06:52:59.178Z,25.6
2019-03-29T06:53:59.208Z,25.6
2019-03-29T06:54:59.267Z,25.799999
2019-03-29T06:55:59.530Z,26.5
2019-03-29T06:56:59.456Z,25.6
2019-03-29T06:57:59.535Z,24.9
2019-03-29T06:58:59.590Z,25
2019-03-29T06:59:59.689Z,25
2019-03-29T07:00:59.781Z,24.700001
2019-03-29T07:01:59.817Z,25.6
2019-03-29T07:02:59.846Z,25.1
2019-03-29T07:03:59.889Z,23.9
2019-03-29T07:04:59.976Z,23.9
2019-03-29T07:06:01.052Z,23.4
2019-03-29T07:07:00.090Z,23.6
2019-03-29T07:08:00.143Z,24.4
2019-03-29T07:09:00.194Z,23.799999
2019-03-29T07:10:00.372Z,23.5
2019-03-29T07:11:00.329Z,22
2019-03-29T07:12:01.399Z,22.1
2019-03-29T07:13:00.430Z,21.5
2019-03-29T07:14:00.473Z,22
2019-03-29T07:15:00.553Z,21.9
2019-03-29T07:16:00.670Z,21.200001
2019-03-29T07:17:00.718Z,21.700001
2019-03-29T07:18:00.773Z,20.700001
2019-03-29T07:19:00.819Z,20.9
2019-03-29T07:20:01.866Z,20.4
2019-03-29T07:21:00.926Z,21.299999
2019-03-29T07:22:01.027Z,21.700001
2019-03-29T07:23:01.066Z,20.799999
2019-03-29T07:24:01.110Z,19.200001
2019-03-29T07:25:01.158Z,19.200001
2019-03-29T07:26:01.186Z,19.299999
2019-03-29T07:27:01.216Z,19.200001
2019-03-29T07:28:01.283Z,18.4
2019-03-29T07:29:01.358Z,19.5
2019-03-29T07:30:01.511Z,20.700001
2019-03-29T07:31:01.550Z,18.700001
2019-03-29T07:32:01.674Z,18.4
2019-03-29T07:33:01.720Z,19
2019-03-29T07:34:01.774Z,18.200001
2019-03-29T07:35:01.816Z,18.6
2019-03-29T07:36:01.864Z,17.799999
2019-03-29T07:37:04.255Z,16.700001
2019-03-29T07:38:03.126Z,17.4
2019-03-29T07:39:02.174Z,17
2019-03-29T07:40:02.207Z,16.700001
2019-03-29T07:41:02.295Z,16.9
2019-03-29T07:42:02.391Z,17.299999
2019-03-29T07:43:02.436Z,17.6
2019-03-29T07:44:02.470Z,17.799999
2019-03-29T07:45:02.524Z,17.799999
2019-03-29T07:46:02.617Z,17.700001
2019-03-29T07:47:02.677Z,18.700001
2019-03-29T07:48:02.740Z,18.799999
2019-03-29T07:49:02.807Z,17.9
2019-03-29T07:50:02.856Z,18.700001
2019-03-29T07:51:02.904Z,18
2019-03-29T07:52:02.976Z,16.700001
2019-03-29T07:53:03.030Z,17.799999
2019-03-29T07:54:03.148Z,16.799999
2019-03-29T07:55:03.231Z,16.700001
2019-03-29T07:56:03.322Z,16.6
2019-03-29T07:57:03.398Z,17
2019-03-29T07:58:03.480Z,15.6
2019-03-29T07:59:03.516Z,16.6
2019-03-29T08:00:03.562Z,16.299999
2019-03-29T08:01:03.610Z,15.7
2019-03-29T08:02:03.677Z,16.1
2019-03-29T08:03:03.722Z,15.7
2019-03-29T08:04:03.780Z,15.2
2019-03-29T08:05:03.859Z,16.200001
2019-03-29T08:06:03.919Z,16.9
2019-03-29T08:07:04.005Z,15.7
2019-03-29T08:08:04.074Z,15.1
2019-03-29T08:09:04.125Z,15
2019-03-29T08:10:04.257Z,15.4
2019-03-29T08:11:04.194Z,15.7
2019-03-29T08:12:04.256Z,14.8
2019-03-29T08:13:04.298Z,14.9
2019-03-29T08:14:04.352Z,13.8
2019-03-29T08:15:04.439Z,13.7
2019-03-29T08:16:06.719Z,14.2
2019-03-29T08:17:04.487Z,13.9
2019-03-29T08:18:04.500Z,14.6
2019-03-29T08:19:04.588Z,15
2019-03-29T08:20:36.231Z,14.4
2019-03-29T08:21:05.692Z,13.9
2019-03-29T08:22:04.741Z,12.1
2019-03-29T08:23:04.751Z,12.7
2019-03-29T08:24:04.808Z,12.6
2019-03-29T08:25:04.833Z,11.9
2019-03-29T08:26:04.893Z,11.8
2019-03-29T08:27:04.955Z,11.6
2019-03-29T08:28:04.968Z,12
2019-03-29T08:29:05.120Z,11.3
2019-03-29T08:30:05.128Z,11.1
2019-03-29T08:31:05.168Z,11.1
2019-03-29T08:32:05.272Z,10.7
2019-03-29T08:33:05.270Z,11
2019-03-29T08:34:05.324Z,11.6
2019-03-29T08:35:05.420Z,11.2
2019-03-29T08:36:05.482Z,10.3
2019-03-29T08:37:05.529Z,11
2019-03-29T08:38:06.251Z,10.2
2019-03-29T08:39:05.594Z,10.3
2019-03-29T08:40:06.603Z,10.4
2019-03-29T08:41:05.732Z,10.4
2019-03-29T08:42:05.785Z,10.5
2019-03-29T08:43:05.762Z,9.6
2019-03-29T08:44:05.822Z,9.1
2019-03-29T08:45:05.865Z,8.9
2019-03-29T08:46:05.890Z,9.5
2019-03-29T08:47:06.050Z,10.5
2019-03-29T08:48:06.773Z,9.5
2019-03-29T08:49:06.185Z,9.7
2019-03-29T08:50:06.235Z,9.3
2019-03-29T08:51:07.280Z,9.5
2019-03-29T08:52:06.348Z,9.6
2019-03-29T08:53:06.403Z,10
2019-03-29T08:54:06.476Z,9.7
2019-03-29T08:55:06.518Z,9.9
2019-03-29T08:56:06.625Z,10.4
2019-03-29T08:57:10.225Z,9.8
2019-03-29T08:58:07.804Z,9.7
2019-03-29T08:59:06.785Z,10
2019-03-29T09:00:06.959Z,10.6
2019-03-29T09:01:06.987Z,10.8
2019-03-29T09:02:07.099Z,10.6
2019-03-29T09:03:07.137Z,10.5
2019-03-29T09:04:07.157Z,10.2
2019-03-29T09:05:07.179Z,10.6
2019-03-29T09:06:07.204Z,10.4
2019-03-29T09:07:07.286Z,10.3
2019-03-29T09:08:07.324Z,10.7
2019-03-29T09:09:07.398Z,10.2
2019-03-29T09:10:08.458Z,9.8
2019-03-29T09:11:07.856Z,10
2019-03-29T09:12:14.031Z,10.3
2019-03-29T09:13:08.764Z,10.2
2019-03-29T09:14:07.877Z,9.6
2019-03-29T09:15:07.965Z,9.7
2019-03-29T09:16:08.041Z,10.3
2019-03-29T09:17:08.110Z,10.1
2019-03-29T09:18:08.218Z,10
2019-03-29T09:19:08.356Z,10.1
2019-03-29T09:20:10.495Z,9.5
2019-03-29T09:21:08.572Z,10.3
2019-03-29T09:22:08.666Z,10.1
2019-03-29T09:23:10.391Z,9.7
2019-03-29T09:24:21.007Z,9
2019-03-29T09:25:09.744Z,9.9
2019-03-29T09:26:08.831Z,9.7
2019-03-29T09:27:08.902Z,10
2019-03-29T09:28:08.945Z,9.9
2019-03-29T09:29:08.966Z,10.2
2019-03-29T09:30:09.081Z,10.4
2019-03-29T09:31:09.090Z,10.1
2019-03-29T09:32:09.084Z,9.8
2019-03-29T09:33:09.238Z,10.5
2019-03-29T09:34:09.331Z,10
2019-03-29T09:35:09.385Z,9.5
2019-03-29T09:36:09.465Z,9.1
2019-03-29T09:37:09.519Z,9.6
2019-03-29T09:38:09.654Z,10.1
2019-03-29T09:39:09.760Z,9.2
2019-03-29T09:40:09.795Z,9.7
2019-03-29T09:41:10.831Z,8.8
2019-03-29T09:42:10.096Z,9.4
2019-03-29T09:43:09.890Z,8.7
2019-03-29T09:44:09.953Z,9
2019-03-29T09:45:10.003Z,8.6
2019-03-29T09:46:10.037Z,9.4
2019-03-29T09:47:10.082Z,9.6
2019-03-29T09:48:10.197Z,9.1
2019-03-29T09:49:10.250Z,9.8
2019-03-29T09:50:10.899Z,9.4
2019-03-29T09:51:10.392Z,9.4
2019-03-29T09:52:10.504Z,9.1
2019-03-29T09:53:10.565Z,8.9
2019-03-29T09:54:10.614Z,8.7
2019-03-29T09:55:10.664Z,9.4
2019-03-29T09:56:10.718Z,9.1
2019-03-29T09:57:15.162Z,9.5
2019-03-29T09:58:11.856Z,9.1
2019-03-29T09:59:12.016Z,9
2019-03-29T10:00:20.717Z,9.6
2019-03-29T10:01:12.029Z,9.5
2019-03-29T10:02:11.078Z,9.9
2019-03-29T10:03:11.189Z,10
2019-03-29T10:04:11.172Z,10
2019-03-29T10:05:11.218Z,9.2
2019-03-29T10:06:11.270Z,9.5
2019-03-29T10:07:12.378Z,10
2019-03-29T10:08:11.467Z,9.6
2019-03-29T10:09:11.554Z,9.6
2019-03-29T10:10:11.662Z,9.9
2019-03-29T10:11:12.754Z,9.7
2019-03-29T10:12:11.850Z,10.1
2019-03-29T10:13:11.850Z,10.2
2019-03-29T10:14:11.907Z,9.6
2019-03-29T10:15:12.005Z,10.2
2019-03-29T10:16:12.072Z,9.8
2019-03-29T10:17:12.180Z,9.4
2019-03-29T10:18:12.284Z,9.7
2019-03-29T10:19:12.354Z,9.7
2019-03-29T10:20:12.401Z,10
2019-03-29T10:21:12.470Z,9.8
2019-03-29T10:22:13.603Z,10.2
2019-03-29T10:23:12.785Z,10
2019-03-29T10:24:12.730Z,9.6
2019-03-29T10:25:19.452Z,9.8
2019-03-29T10:26:13.877Z,10.1
2019-03-29T10:27:13.037Z,9.9
2019-03-29T10:28:14.159Z,9.3
2019-03-29T10:29:13.211Z,9.5
2019-03-29T10:30:13.301Z,9.6
2019-03-29T10:31:13.307Z,9.5
2019-03-29T10:32:13.269Z,9.7
2019-03-29T10:33:13.452Z,9.4
2019-03-29T10:34:13.399Z,9.5
2019-03-29T10:35:13.546Z,9.4
2019-03-29T10:36:13.603Z,9.7
2019-03-29T10:37:13.648Z,9.8
2019-03-29T10:38:13.790Z,9.6
2019-03-29T10:39:14.843Z,9.6
2019-03-29T10:40:13.950Z,9.4
2019-03-29T10:41:14.021Z,9.7
2019-03-29T10:42:14.147Z,9.5
2019-03-29T10:43:14.289Z,9.3
2019-03-29T10:44:14.343Z,9.5
2019-03-29T10:45:14.429Z,8.8
2019-03-29T10:46:14.482Z,8.6
2019-03-29T10:47:14.524Z,8.2
2019-03-29T10:48:14.708Z,8.4
2019-03-29T10:49:15.171Z,8.9
2019-03-29T10:50:14.912Z,9.4
2019-03-29T10:51:15.016Z,9.7
2019-03-29T10:52:15.407Z,9.6
2019-03-29T10:53:16.003Z,9.2
2019-03-29T10:54:15.404Z,8.9
2019-03-29T10:55:15.499Z,8.6
2019-03-29T10:56:15.462Z,9
2019-03-29T10:57:15.570Z,9.3
2019-03-29T10:58:15.651Z,9.3
2019-03-29T10:59:26.553Z,8.9
2019-03-29T11:00:16.815Z,9
2019-03-29T11:01:16.896Z,9.5
2019-03-29T11:02:15.956Z,8.8
2019-03-29T11:03:16.048Z,9.3
2019-03-29T11:04:16.170Z,9
2019-03-29T11:05:16.267Z,9
2019-03-29T11:06:16.385Z,9.3
2019-03-29T11:07:16.507Z,9.5
2019-03-29T11:08:16.607Z,9
2019-03-29T11:09:16.783Z,9.4
2019-03-29T11:10:16.867Z,9.3
2019-03-29T11:11:16.985Z,9.1
2019-03-29T11:12:17.126Z,9.1
2019-03-29T11:13:17.162Z,9.5
2019-03-29T11:14:17.301Z,9.2
2019-03-29T11:15:17.377Z,8.6
2019-03-29T11:16:17.489Z,9.3
2019-03-29T11:17:17.577Z,9
2019-03-29T11:18:17.637Z,9.2
2019-03-29T11:19:17.781Z,8.7
2019-03-29T11:20:18.717Z,9
2019-03-29T11:21:17.928Z,9.1
2019-03-29T11:22:17.980Z,9.2
2019-03-29T11:23:18.079Z,9.1
2019-03-29T11:24:18.135Z,8.6
2019-03-29T11:25:18.241Z,9.1
2019-03-29T11:26:18.343Z,9.1
2019-03-29T11:27:18.433Z,9.4
2019-03-29T11:28:19.516Z,8.8
2019-03-29T11:29:19.581Z,8.7
2019-03-29T11:30:18.630Z,9.1
2019-03-29T11:31:18.691Z,8.9
2019-03-29T11:32:18.746Z,8.6
2019-03-29T11:33:18.802Z,8.6
2019-03-29T11:34:20.918Z,8.5
2019-03-29T11:35:18.927Z,8.5
2019-03-29T11:36:18.979Z,9.1
2019-03-29T11:37:19.043Z,8
2019-03-29T11:38:19.104Z,8.4
2019-03-29T11:39:19.278Z,8.4
2019-03-29T11:40:19.193Z,8.4
2019-03-29T11:41:19.235Z,8.7
2019-03-29T11:42:19.285Z,8
2019-03-29T11:43:26.308Z,8.3
2019-03-29T11:44:20.389Z,8.3
2019-03-29T11:45:19.439Z,8.2
2019-03-29T11:46:19.593Z,7.9
2019-03-29T11:47:19.708Z,7.7
2019-03-29T11:48:19.735Z,8.2
2019-03-29T11:49:19.813Z,8.2
2019-03-29T11:50:19.858Z,8.3
2019-03-29T11:51:20.157Z,8.6
2019-03-29T11:52:19.952Z,8.4
2019-03-29T11:53:20.035Z,8.1
2019-03-29T11:54:20.141Z,7.7
2019-03-29T11:55:20.208Z,8.6
2019-03-29T11:56:20.262Z,7.9
2019-03-29T11:57:20.318Z,8.4
2019-03-29T11:58:20.428Z,8.4
2019-03-29T11:59:20.592Z,8
2019-03-29T12:00:20.479Z,8
2019-03-29T12:01:20.543Z,8.2
2019-03-29T12:02:30.881Z,8.1
2019-03-29T12:03:21.638Z,8.2
2019-03-29T12:04:20.779Z,8.3
2019-03-29T12:05:20.821Z,8
2019-03-29T12:06:20.890Z,8.3
2019-03-29T12:07:20.995Z,8.5
2019-03-29T12:08:21.044Z,8.2
2019-03-29T12:09:21.144Z,8.2
2019-03-29T12:10:21.208Z,8.5
2019-03-29T12:11:21.266Z,8.3
2019-03-29T12:12:21.341Z,8.8
2019-03-29T12:13:21.434Z,8.4
2019-03-29T12:14:21.523Z,8.4
2019-03-29T12:15:21.560Z,8.3
2019-03-29T12:16:21.625Z,8.3
2019-03-29T12:17:21.687Z,8.9
2019-03-29T12:18:21.739Z,7.9
2019-03-29T12:19:21.840Z,8.2
2019-03-29T12:20:21.892Z,8.3
2019-03-29T12:21:21.981Z,8.1
2019-03-29T12:22:22.042Z,8.7
2019-03-29T12:23:22.098Z,8.2
2019-03-29T12:24:22.202Z,8.6
2019-03-29T12:25:22.265Z,9.2
2019-03-29T12:26:22.330Z,8.3
2019-03-29T12:27:22.439Z,8.5
2019-03-29T12:28:22.657Z,8.9
2019-03-29T12:29:22.624Z,8.7
2019-03-29T12:30:30.964Z,8.8
2019-03-29T12:31:23.777Z,8.4
2019-03-29T12:32:22.819Z,8.3
2019-03-29T12:33:22.894Z,7.9
2019-03-29T12:34:22.979Z,8.1
2019-03-29T12:35:23.075Z,8.6
2019-03-29T12:36:23.125Z,8.2
2019-03-29T12:37:23.218Z,8.2
2019-03-29T12:38:23.306Z,8.7
2019-03-29T12:39:23.372Z,8.4
2019-03-29T12:40:23.539Z,8.3